createdAt,value
2019-05-07T00:01:34.099Z,8.05
2019-05-07T00:04:01.966Z,8.01
2019-05-07T00:06:27.246Z,7.84
2019-05-07T00:08:52.693Z,7.91
2019-05-07T00:11:18.348Z,8.03
2019-05-07T00:13:44.500Z,7.96
2019-05-07T00:16:10.044Z,7.82
2019-05-07T00:18:35.408Z,7.94
2019-05-07T00:21:03.335Z,7.95
2019-05-07T00:23:28.084Z,8.07
2019-05-07T00:25:53.529Z,8.05
2019-05-07T00:28:18.991Z,8.00
2019-05-07T00:30:44.474Z,7.97
2019-05-07T00:33:09.911Z,7.94
2019-05-07T00:35:42.882Z,7.94
2019-05-07T00:38:12.915Z,7.99
2019-05-07T00:41:06.585Z,8.07
2019-05-07T00:43:35.394Z,8.02
2019-05-07T00:46:19.671Z,8.08
2019-05-07T00:48:45.382Z,8.01
2019-05-07T00:51:33.167Z,7.72
2019-05-07T00:53:58.786Z,7.81
2019-05-07T00:56:24.328Z,7.94
2019-05-07T00:58:49.791Z,7.92
2019-05-07T01:01:15.882Z,7.83
2019-05-07T01:03:42.427Z,7.84
2019-05-07T01:06:08.063Z,7.87
2019-05-07T01:08:33.600Z,7.90
2019-05-07T01:10:59.381Z,7.70
2019-05-07T01:13:24.751Z,7.44
2019-05-07T01:15:52.991Z,7.56
2019-05-07T01:18:17.866Z,7.64
2019-05-07T01:20:44.690Z,7.77
2019-05-07T01:23:10.017Z,7.85
2019-05-07T01:25:35.871Z,7.91
2019-05-07T01:28:02.632Z,7.83
2019-05-07T01:30:28.756Z,7.85
2019-05-07T01:33:04.537Z,7.80
2019-05-07T01:35:47.717Z,7.81
2019-05-07T01:38:15.028Z,7.72
2019-05-07T01:40:42.666Z,7.48
2019-05-07T01:43:08.748Z,7.53
2019-05-07T01:45:45.408Z,7.76
2019-05-07T01:48:04.425Z,7.75
2019-05-07T01:50:32.113Z,7.47
2019-05-07T01:52:57.353Z,7.55
2019-05-07T01:55:22.962Z,7.66
2019-05-07T01:57:49.510Z,7.67
2019-05-07T02:00:15.045Z,7.66
2019-05-07T02:02:55.181Z,7.68
2019-05-07T02:05:42.746Z,7.69
2019-05-07T02:08:12.404Z,7.38
2019-05-07T02:10:53.233Z,7.21
2019-05-07T02:13:18.806Z,7.26
2019-05-07T02:15:57.278Z,7.26
2019-05-07T02:18:12.590Z,7.41
2019-05-07T02:20:38.741Z,7.46
2019-05-07T02:23:04.942Z,7.50
2019-05-07T02:25:32.725Z,7.30
2019-05-07T02:27:58.331Z,6.93
2019-05-07T02:30:24.278Z,6.81
2019-05-07T02:32:49.953Z,7.05
2019-05-07T02:35:15.419Z,7.17
2019-05-07T02:37:51.955Z,7.24
2019-05-07T02:40:25.396Z,7.30
2019-05-07T02:42:54.062Z,6.90
2019-05-07T02:45:40.074Z,6.79
2019-05-07T02:48:06.137Z,6.99
2019-05-07T02:50:37.840Z,6.78
2019-05-07T02:53:08.913Z,6.65
2019-05-07T02:55:38.736Z,6.81
2019-05-07T02:58:04.552Z,6.93
2019-05-07T03:00:33.152Z,6.73
2019-05-07T03:02:57.491Z,6.60
2019-05-07T03:05:23.330Z,6.59
2019-05-07T03:07:49.932Z,6.72
2019-05-07T03:10:15.552Z,6.90
2019-05-07T03:12:43.044Z,6.63
2019-05-07T03:15:08.743Z,6.49
2019-05-07T03:17:34.289Z,6.69
2019-05-07T03:20:03.171Z,6.83
2019-05-07T03:22:28.741Z,6.95
2019-05-07T03:25:02.991Z,6.98
2019-05-07T03:27:27.382Z,6.78
2019-05-07T03:30:04.414Z,6.68
2019-05-07T03:32:39.062Z,6.57
2019-05-07T03:35:38.738Z,6.72
2019-05-07T03:38:04.286Z,6.78
2019-05-07T03:40:32.878Z,6.72
2019-05-07T03:43:01.946Z,6.56
2019-05-07T03:45:36.576Z,6.46
2019-05-07T03:48:13.256Z,6.51
2019-05-07T03:50:37.646Z,6.58
2019-05-07T03:53:03.254Z,6.76
2019-05-07T03:55:29.208Z,6.83
2019-05-07T03:57:54.645Z,6.85
2019-05-07T04:00:23.638Z,6.69
2019-05-07T04:02:47.490Z,6.60
2019-05-07T04:05:14.219Z,6.74
2019-05-07T04:07:42.708Z,6.78
2019-05-07T04:10:10.212Z,6.81
2019-05-07T04:12:35.684Z,6.82
2019-05-07T04:15:03.495Z,6.55
2019-05-07T04:17:29.205Z,6.68
2019-05-07T04:19:54.763Z,6.77
2019-05-07T04:22:24.159Z,6.74
2019-05-07T04:25:05.971Z,6.74
2019-05-07T04:27:44.183Z,6.47
2019-05-07T04:30:07.547Z,6.42
2019-05-07T04:32:43.195Z,6.41
2019-05-07T04:35:33.404Z,6.53
2019-05-07T04:38:02.188Z,6.73
2019-05-07T04:40:26.794Z,6.60
2019-05-07T04:42:53.790Z,6.38
2019-05-07T04:45:23.198Z,6.73
2019-05-07T04:47:48.134Z,6.86
2019-05-07T04:50:37.214Z,6.85
2019-05-07T04:52:43.940Z,6.60
2019-05-07T04:55:13.617Z,6.67
2019-05-07T04:57:37.652Z,6.77
2019-05-07T05:00:04.024Z,6.79
2019-05-07T05:02:43.473Z,6.87
2019-05-07T05:05:08.852Z,6.86
2019-05-07T05:07:34.197Z,7.00
2019-05-07T05:10:02.629Z,6.91
2019-05-07T05:12:27.358Z,7.01
2019-05-07T05:14:52.815Z,7.03
2019-05-07T05:17:18.243Z,7.19
2019-05-07T05:19:44.008Z,7.15
2019-05-07T05:22:34.022Z,7.10
2019-05-07T05:25:15.820Z,7.16
2019-05-07T05:27:42.970Z,7.24
2019-05-07T05:30:12.377Z,7.26
2019-05-07T05:32:37.728Z,7.27
2019-05-07T05:35:08.550Z,7.20
2019-05-07T05:37:33.975Z,7.24
2019-05-07T05:40:06.165Z,7.35
2019-05-07T05:42:34.268Z,7.47
2019-05-07T05:45:01.998Z,7.49
2019-05-07T05:47:26.789Z,7.49
2019-05-07T05:49:53.401Z,7.56
2019-05-07T05:52:33.417Z,7.44
2019-05-07T05:55:03.999Z,7.50
2019-05-07T05:57:42.948Z,7.61
2019-05-07T06:00:22.055Z,7.77
2019-05-07T06:02:59.776Z,7.62
2019-05-07T06:05:47.283Z,7.78
2019-05-07T06:08:32.461Z,7.87
2019-05-07T06:11:16.538Z,7.83
2019-05-07T06:13:56.821Z,7.94
2019-05-07T06:16:26.686Z,7.94
2019-05-07T06:19:12.856Z,7.94
2019-05-07T06:22:06.247Z,8.15
2019-05-07T06:24:38.162Z,8.32
2019-05-07T06:27:03.626Z,8.37
2019-05-07T06:29:29.083Z,8.50
2019-05-07T06:32:04.099Z,8.60
2019-05-07T06:34:30.239Z,8.77
2019-05-07T06:36:55.669Z,8.92
2019-05-07T06:39:25.819Z,8.82
2019-05-07T06:42:09.510Z,8.90
2019-05-07T06:44:34.968Z,9.05
2019-05-07T06:47:02.303Z,9.25
2019-05-07T06:49:27.752Z,9.21
2019-05-07T06:51:55.533Z,9.20
2019-05-07T06:54:22.546Z,9.29
2019-05-07T06:56:49.043Z,9.16
2019-05-07T06:59:22.466Z,9.20
2019-05-07T07:02:06.931Z,9.30
2019-05-07T07:04:57.776Z,9.38
2019-05-07T07:07:36.494Z,9.75
2019-05-07T07:10:08.753Z,9.77
2019-05-07T07:12:34.241Z,9.86
2019-05-07T07:14:59.682Z,9.89
2019-05-07T07:17:25.131Z,9.79
2019-05-07T07:19:52.326Z,9.73
2019-05-07T07:22:17.813Z,9.67
2019-05-07T07:24:43.595Z,9.99
2019-05-07T07:27:09.059Z,10.04
2019-05-07T07:29:36.256Z,10.29
2019-05-07T07:32:04.106Z,10.06
2019-05-07T07:34:33.276Z,10.02
2019-05-07T07:37:24.385Z,9.84
2019-05-07T07:39:52.416Z,10.08
2019-05-07T07:42:17.937Z,9.94
2019-05-07T07:44:43.383Z,10.19
2019-05-07T07:47:08.825Z,9.84
2019-05-07T07:49:34.301Z,9.93
2019-05-07T07:52:00.021Z,10.08
2019-05-07T07:54:25.507Z,10.46
2019-05-07T07:57:09.888Z,10.58
2019-05-07T07:59:56.710Z,10.34
2019-05-07T08:02:33.207Z,10.71
2019-05-07T08:04:58.690Z,10.68
2019-05-07T08:07:24.443Z,10.54
2019-05-07T08:09:51.901Z,10.89
2019-05-07T08:12:17.147Z,10.89
2019-05-07T08:14:42.882Z,10.94
2019-05-07T08:17:09.331Z,10.93
2019-05-07T08:19:34.748Z,10.98
2019-05-07T08:22:02.582Z,11.10
2019-05-07T08:24:28.002Z,11.08
2019-05-07T08:26:53.745Z,11.10
2019-05-07T08:29:19.785Z,11.26
2019-05-07T08:32:09.169Z,11.19
2019-05-07T08:34:45.938Z,11.36
2019-05-07T08:37:12.109Z,11.31
2019-05-07T08:39:42.934Z,11.25
2019-05-07T08:42:08.406Z,11.44
2019-05-07T08:44:42.969Z,11.37
2019-05-07T08:47:42.621Z,11.30
2019-05-07T08:50:08.361Z,10.99
2019-05-07T08:52:34.109Z,11.20
2019-05-07T08:54:59.570Z,11.20
2019-05-07T08:57:26.821Z,11.63
2019-05-07T09:00:00.430Z,11.54
2019-05-07T09:02:21.792Z,11.66
2019-05-07T09:04:47.049Z,11.33
2019-05-07T09:07:13.165Z,11.20
2019-05-07T09:09:38.689Z,10.97
2019-05-07T09:12:04.355Z,11.01
2019-05-07T09:14:31.552Z,11.17
2019-05-07T09:16:57.124Z,11.16
2019-05-07T09:19:22.850Z,11.13
2019-05-07T09:21:48.403Z,11.20
2019-05-07T09:24:13.996Z,11.22
2019-05-07T09:26:48.665Z,11.23
2019-05-07T09:29:22.055Z,10.94
2019-05-07T09:32:04.961Z,11.10
2019-05-07T09:34:33.359Z,11.13
2019-05-07T09:37:02.359Z,11.11
2019-05-07T09:39:27.939Z,11.07
2019-05-07T09:41:53.968Z,11.05
2019-05-07T09:44:22.038Z,11.05
2019-05-07T09:46:48.139Z,11.12
2019-05-07T09:49:13.594Z,11.07
2019-05-07T09:51:39.701Z,10.86
2019-05-07T09:54:05.184Z,10.84
2019-05-07T09:56:31.979Z,10.47
2019-05-07T09:58:57.661Z,10.73
2019-05-07T10:01:23.944Z,10.50
2019-05-07T10:03:49.373Z,10.67
2019-05-07T10:06:16.654Z,10.78
2019-05-07T10:08:42.431Z,10.85
2019-05-07T10:11:12.023Z,10.59
2019-05-07T10:13:47.184Z,10.63
2019-05-07T10:16:15.079Z,10.35
2019-05-07T10:18:42.674Z,10.40
2019-05-07T10:21:07.995Z,10.57
2019-05-07T10:23:34.542Z,10.65
2019-05-07T10:26:01.782Z,10.74
2019-05-07T10:28:27.442Z,10.81
2019-05-07T10:30:53.818Z,10.39
2019-05-07T10:33:19.294Z,10.64
2019-05-07T10:35:44.750Z,10.63
2019-05-07T10:38:12.304Z,10.48
2019-05-07T10:40:37.394Z,10.55
2019-05-07T10:43:02.767Z,10.23
2019-05-07T10:46:05.691Z,10.57
2019-05-07T10:48:55.900Z,10.72
2019-05-07T10:51:21.871Z,10.59
2019-05-07T10:53:47.375Z,10.67
2019-05-07T10:56:22.418Z,10.61
2019-05-07T10:58:47.794Z,10.65
2019-05-07T11:01:18.061Z,10.61
2019-05-07T11:03:43.768Z,10.66
2019-05-07T11:06:09.254Z,10.79
2019-05-07T11:08:34.713Z,10.75
2019-05-07T11:11:00.223Z,10.78
2019-05-07T11:13:25.718Z,10.80
2019-05-07T11:15:54.768Z,10.89
2019-05-07T11:18:32.476Z,10.87
2019-05-07T11:20:57.954Z,10.98
2019-05-07T11:23:23.418Z,10.98
2019-05-07T11:25:48.991Z,11.00
2019-05-07T11:28:14.452Z,10.96
2019-05-07T11:30:42.354Z,11.01
2019-05-07T11:33:07.785Z,10.94
2019-05-07T11:35:33.562Z,10.83
2019-05-07T11:37:59.141Z,11.14
2019-05-07T11:40:24.783Z,11.06
2019-05-07T11:43:02.893Z,11.15
2019-05-07T11:45:33.355Z,11.33
2019-05-07T11:47:58.870Z,11.69
2019-05-07T11:51:00.564Z,11.49
2019-05-07T11:53:17.384Z,11.50
2019-05-07T11:55:42.850Z,11.69
2019-05-07T11:58:08.836Z,11.80
2019-05-07T12:00:39.963Z,11.68
2019-05-07T12:03:05.445Z,11.66
2019-05-07T12:05:33.221Z,11.65
2019-05-07T12:07:58.489Z,11.75
2019-05-07T12:10:23.971Z,11.85
2019-05-07T12:12:52.003Z,11.93
2019-05-07T12:15:17.871Z,11.93
2019-05-07T12:17:43.312Z,11.90
2019-05-07T12:20:09.140Z,11.93
2019-05-07T12:22:47.030Z,11.98
2019-05-07T12:25:12.604Z,12.22
2019-05-07T12:27:38.134Z,12.25
2019-05-07T12:30:04.419Z,12.03
2019-05-07T12:32:42.712Z,12.26
2019-05-07T12:35:14.269Z,12.18
2019-05-07T12:37:39.815Z,12.22
2019-05-07T12:40:06.278Z,12.15
2019-05-07T12:42:32.706Z,12.08
2019-05-07T12:44:58.637Z,12.22
2019-05-07T12:47:24.625Z,12.31
2019-05-07T12:49:59.489Z,12.17
2019-05-07T12:52:32.069Z,12.35
2019-05-07T12:55:33.879Z,12.56
2019-05-07T12:57:59.694Z,12.64
2019-05-07T13:00:44.852Z,12.53
2019-05-07T13:03:35.036Z,12.63
2019-05-07T13:06:02.565Z,12.86
2019-05-07T13:08:28.196Z,12.69
2019-05-07T13:10:53.855Z,12.43
2019-05-07T13:13:19.517Z,12.79
2019-05-07T13:15:45.105Z,12.90
2019-05-07T13:18:12.707Z,13.11
2019-05-07T13:20:38.900Z,12.53
2019-05-07T13:23:05.686Z,12.67
2019-05-07T13:25:32.399Z,12.51
2019-05-07T13:27:58.215Z,12.36
2019-05-07T13:30:29.753Z,12.24
2019-05-07T13:32:57.111Z,12.09
2019-05-07T13:35:23.063Z,12.17
2019-05-07T13:38:11.802Z,12.21
2019-05-07T13:40:58.269Z,12.43
2019-05-07T13:43:29.139Z,12.36
2019-05-07T13:46:02.677Z,12.50
2019-05-07T13:48:31.733Z,12.54
2019-05-07T13:50:57.484Z,12.21
2019-05-07T13:53:23.997Z,12.00
2019-05-07T13:55:49.849Z,12.27
2019-05-07T13:58:15.668Z,12.13
2019-05-07T14:00:49.772Z,12.16
2019-05-07T14:03:15.220Z,12.22
2019-05-07T14:05:42.622Z,12.45
2019-05-07T14:08:08.087Z,12.30
2019-05-07T14:10:36.951Z,12.13
2019-05-07T14:13:11.476Z,12.04
2019-05-07T14:15:32.113Z,12.15
2019-05-07T14:17:58.111Z,11.95
2019-05-07T14:20:23.834Z,12.02
2019-05-07T14:22:51.579Z,12.03
2019-05-07T14:25:17.113Z,12.00
2019-05-07T14:27:42.922Z,11.77
2019-05-07T14:30:10.020Z,11.99
2019-05-07T14:33:05.960Z,12.06
2019-05-07T14:35:35.841Z,12.02
2019-05-07T14:38:23.515Z,12.21
2019-05-07T14:40:49.122Z,12.02
2019-05-07T14:43:24.404Z,12.12
2019-05-07T14:45:52.113Z,12.18
2019-05-07T14:48:19.452Z,12.19
2019-05-07T14:50:45.190Z,12.25
2019-05-07T14:53:11.984Z,12.13
2019-05-07T14:55:37.828Z,12.15
2019-05-07T14:58:03.450Z,12.23
2019-05-07T15:00:28.928Z,12.36
2019-05-07T15:02:54.421Z,12.35
2019-05-07T15:05:19.921Z,12.34
2019-05-07T15:07:45.461Z,12.57
2019-05-07T15:10:11.605Z,12.60
2019-05-07T15:12:37.398Z,12.78
2019-05-07T15:15:03.216Z,12.99
2019-05-07T15:17:37.914Z,12.97
2019-05-07T15:20:03.797Z,12.79
2019-05-07T15:22:52.673Z,12.62
2019-05-07T15:25:18.403Z,12.42
2019-05-07T15:27:45.434Z,12.24
2019-05-07T15:30:12.069Z,12.30
2019-05-07T15:32:37.531Z,12.55
2019-05-07T15:35:03.085Z,12.84
2019-05-07T15:37:28.625Z,12.77
2019-05-07T15:39:54.116Z,12.86
2019-05-07T15:42:19.572Z,12.96
2019-05-07T15:44:45.036Z,13.07
2019-05-07T15:47:15.681Z,12.98
2019-05-07T15:49:41.758Z,13.16
2019-05-07T15:52:12.851Z,13.06
2019-05-07T15:54:38.357Z,12.99
2019-05-07T15:57:06.228Z,12.97
2019-05-07T15:59:31.688Z,13.04
2019-05-07T16:02:06.098Z,12.94
2019-05-07T16:04:32.896Z,12.92
2019-05-07T16:07:00.038Z,12.90
2019-05-07T16:09:27.183Z,12.75
2019-05-07T16:11:53.080Z,12.52
2019-05-07T16:14:26.696Z,12.52
2019-05-07T16:16:52.004Z,12.47
2019-05-07T16:19:36.428Z,12.44
2019-05-07T16:22:07.397Z,12.57
2019-05-07T16:24:32.850Z,12.58
2019-05-07T16:26:59.457Z,12.59
2019-05-07T16:29:24.913Z,12.51
2019-05-07T16:31:52.144Z,12.51
2019-05-07T16:34:17.774Z,12.52
2019-05-07T16:36:43.342Z,12.55
2019-05-07T16:39:09.493Z,12.54
2019-05-07T16:41:35.198Z,12.68
2019-05-07T16:44:02.748Z,12.57
2019-05-07T16:46:28.074Z,12.54
2019-05-07T16:48:53.832Z,12.41
2019-05-07T16:51:19.392Z,12.29
2019-05-07T16:53:45.203Z,12.39
2019-05-07T16:56:12.386Z,12.24
2019-05-07T16:58:44.865Z,12.15
2019-05-07T17:01:11.365Z,12.20
2019-05-07T17:03:42.707Z,12.34
2019-05-07T17:06:08.297Z,12.25
2019-05-07T17:08:51.575Z,12.32
2019-05-07T17:11:16.814Z,12.36
2019-05-07T17:13:42.552Z,12.46
2019-05-07T17:16:07.979Z,12.52
2019-05-07T17:18:33.480Z,12.27
2019-05-07T17:21:01.854Z,12.08
2019-05-07T17:23:42.776Z,12.08
2019-05-07T17:25:55.864Z,12.13
2019-05-07T17:28:22.885Z,12.12
2019-05-07T17:30:49.471Z,12.19
2019-05-07T17:33:15.442Z,12.15
2019-05-07T17:35:42.342Z,12.29
2019-05-07T17:38:09.914Z,12.44
2019-05-07T17:40:35.089Z,12.19
2019-05-07T17:43:02.975Z,12.31
2019-05-07T17:45:27.682Z,12.19
2019-05-07T17:47:53.524Z,12.27
2019-05-07T17:50:22.796Z,12.02
2019-05-07T17:52:48.313Z,12.23
2019-05-07T17:55:13.816Z,12.26
2019-05-07T17:57:39.305Z,12.18
2019-05-07T18:00:05.953Z,12.09
2019-05-07T18:02:59.799Z,12.17
2019-05-07T18:05:25.344Z,12.15
2019-05-07T18:07:52.782Z,12.08
2019-05-07T18:10:18.058Z,12.29
2019-05-07T18:12:43.460Z,12.35
2019-05-07T18:15:08.933Z,12.26
2019-05-07T18:17:53.560Z,12.19
2019-05-07T18:20:19.194Z,12.11
2019-05-07T18:22:44.883Z,12.16
2019-05-07T18:25:12.444Z,12.06
2019-05-07T18:27:38.059Z,12.04
2019-05-07T18:30:04.155Z,11.88
2019-05-07T18:32:35.540Z,11.85
2019-05-07T18:35:02.376Z,11.94
2019-05-07T18:37:27.956Z,11.98
2019-05-07T18:39:53.663Z,11.91
2019-05-07T18:42:22.105Z,11.84
2019-05-07T18:44:48.119Z,11.74
2019-05-07T18:47:13.965Z,11.83
2019-05-07T18:49:42.857Z,11.80
2019-05-07T18:52:07.042Z,11.79
2019-05-07T18:54:32.901Z,11.75
2019-05-07T18:56:58.871Z,11.72
2019-05-07T18:59:26.398Z,11.70
2019-05-07T19:01:53.279Z,11.55
2019-05-07T19:04:18.884Z,11.69
2019-05-07T19:06:44.588Z,11.63
2019-05-07T19:09:22.279Z,11.58
2019-05-07T19:11:48.334Z,11.39
2019-05-07T19:14:13.959Z,11.38
2019-05-07T19:16:47.531Z,11.36
2019-05-07T19:19:13.538Z,11.23
2019-05-07T19:21:42.320Z,11.12
2019-05-07T19:24:11.363Z,10.97
2019-05-07T19:26:37.380Z,10.85
2019-05-07T19:29:04.000Z,10.91
2019-05-07T19:31:29.596Z,10.67
2019-05-07T19:33:55.160Z,10.44
2019-05-07T19:36:23.375Z,10.52
2019-05-07T19:38:48.831Z,10.65
2019-05-07T19:41:14.391Z,10.74
2019-05-07T19:43:41.990Z,10.65
2019-05-07T19:46:07.336Z,10.47
2019-05-07T19:48:33.042Z,10.46
2019-05-07T19:50:58.515Z,10.14
2019-05-07T19:53:24.006Z,10.06
2019-05-07T19:56:14.457Z,10.25
2019-05-07T19:58:41.924Z,10.29
2019-05-07T20:01:08.847Z,10.10
2019-05-07T20:03:34.440Z,10.08
2019-05-07T20:06:02.264Z,10.12
2019-05-07T20:08:27.380Z,10.04
2019-05-07T20:11:02.715Z,10.14
2019-05-07T20:13:28.774Z,10.10
2019-05-07T20:16:00.395Z,10.22
2019-05-07T20:18:29.669Z,10.23
2019-05-07T20:20:57.873Z,10.15
2019-05-07T20:23:23.518Z,10.09
2019-05-07T20:25:49.300Z,10.08
2019-05-07T20:28:16.601Z,9.97
2019-05-07T20:30:42.488Z,10.02
2019-05-07T20:33:09.548Z,9.79
2019-05-07T20:35:38.270Z,9.77
2019-05-07T20:38:03.077Z,9.90
2019-05-07T20:40:28.940Z,9.88
2019-05-07T20:42:54.580Z,9.77
2019-05-07T20:45:20.517Z,9.76
2019-05-07T20:47:48.120Z,9.53
2019-05-07T20:50:14.768Z,9.69
2019-05-07T20:52:41.860Z,9.43
2019-05-07T20:55:30.503Z,9.57
2019-05-07T20:57:51.692Z,9.37
2019-05-07T21:00:26.118Z,9.52
2019-05-07T21:03:12.535Z,9.48
2019-05-07T21:05:37.954Z,9.19
2019-05-07T21:08:03.402Z,9.03
2019-05-07T21:10:28.900Z,9.01
2019-05-07T21:12:54.281Z,9.20
2019-05-07T21:15:19.742Z,9.29
2019-05-07T21:17:45.190Z,9.32
2019-05-07T21:20:12.109Z,9.20
2019-05-07T21:22:37.751Z,8.97
2019-05-07T21:25:03.188Z,9.14
2019-05-07T21:27:28.910Z,9.23
2019-05-07T21:29:54.345Z,9.25
2019-05-07T21:32:19.807Z,9.21
2019-05-07T21:34:45.439Z,9.02
2019-05-07T21:37:12.655Z,9.11
2019-05-07T21:39:38.168Z,9.18
2019-05-07T21:42:03.652Z,9.32
2019-05-07T21:44:29.095Z,9.20
2019-05-07T21:46:54.556Z,8.92
2019-05-07T21:49:19.916Z,8.74
2019-05-07T21:51:45.391Z,9.04
2019-05-07T21:54:24.462Z,9.07
2019-05-07T21:57:15.412Z,9.12
2019-05-07T21:59:43.213Z,8.86
2019-05-07T22:02:22.213Z,8.75
2019-05-07T22:04:47.682Z,8.83
2019-05-07T22:07:13.281Z,8.83
2019-05-07T22:09:38.752Z,8.80
2019-05-07T22:12:04.218Z,8.85
2019-05-07T22:14:29.668Z,8.98
2019-05-07T22:16:55.104Z,9.03
2019-05-07T22:19:20.607Z,9.06
2019-05-07T22:21:46.079Z,9.15
2019-05-07T22:24:13.058Z,9.15
2019-05-07T22:26:38.658Z,9.05
2019-05-07T22:29:04.141Z,9.17
2019-05-07T22:31:35.996Z,9.22
2019-05-07T22:34:18.917Z,9.26
2019-05-07T22:36:44.409Z,9.22
2019-05-07T22:39:12.466Z,9.24
2019-05-07T22:41:37.567Z,9.12
2019-05-07T22:44:03.026Z,9.21
2019-05-07T22:46:28.426Z,9.21
2019-05-07T22:48:53.906Z,9.31
2019-05-07T22:51:19.626Z,9.33
2019-05-07T22:53:45.108Z,9.25
2019-05-07T22:56:12.042Z,9.32
2019-05-07T22:58:42.207Z,9.36
2019-05-07T23:01:09.560Z,9.33
2019-05-07T23:03:35.295Z,9.31
2019-05-07T23:06:07.244Z,9.39
2019-05-07T23:08:32.906Z,9.38
2019-05-07T23:10:58.231Z,9.32
2019-05-07T23:13:23.618Z,9.47
2019-05-07T23:15:49.453Z,9.31
2019-05-07T23:18:14.955Z,9.36
2019-05-07T23:20:42.140Z,9.34
2019-05-07T23:23:07.597Z,9.05
2019-05-07T23:25:33.056Z,9.16
2019-05-07T23:27:58.499Z,9.25
2019-05-07T23:30:23.958Z,9.22
2019-05-07T23:32:49.443Z,9.18
2019-05-07T23:35:15.252Z,9.23
2019-05-07T23:37:41.989Z,9.33
2019-05-07T23:40:15.688Z,9.38
2019-05-07T23:42:42.851Z,9.26
2019-05-07T23:45:08.393Z,9.32
2019-05-07T23:47:33.769Z,9.20
2019-05-07T23:49:59.235Z,9.35
2019-05-07T23:52:24.770Z,9.40
2019-05-07T23:54:52.149Z,9.26
2019-05-07T23:57:17.441Z,9.16
2019-05-07T23:59:42.975Z,9.33
